sensor_id;sensor_type;location;lat;lon;timestamp;pressure;altitude;pressure_sealevel;temperature;humidity
47374;BME280;33123;50.118;10.272;2023-03-14T00:00:20;95797.50;;;10.94;80.20
47374;BME280;33123;50.118;10.272;2023-03-14T00:02:51;95817.91;;;10.74;81.14
47374;BME280;33123;50.118;10.272;2023-03-14T00:05:18;95831.47;;;10.81;80.98
47374;BME280;33123;50.118;10.272;2023-03-14T00:07:45;95852.66;;;10.63;82.04
47374;BME280;33123;50.118;10.272;2023-03-14T00:10:13;95854.97;;;10.64;81.99
47374;BME280;33123;50.118;10.272;2023-03-14T00:12:40;95858.50;;;10.60;82.17
47374;BME280;33123;50.118;10.272;2023-03-14T00:15:08;95854.22;;;10.64;82.06
47374;BME280;33123;50.118;10.272;2023-03-14T00:17:36;95857.53;;;10.55;82.20
47374;BME280;33123;50.118;10.272;2023-03-14T00:20:04;95867.09;;;10.65;81.88
47374;BME280;33123;50.118;10.272;2023-03-14T00:22:33;95873.34;;;10.69;81.39
47374;BME280;33123;50.118;10.272;2023-03-14T00:25:00;95876.44;;;10.71;81.30
47374;BME280;33123;50.118;10.272;2023-03-14T00:27:27;95879.91;;;10.72;81.07
47374;BME280;33123;50.118;10.272;2023-03-14T00:29:54;95857.72;;;10.59;81.62
47374;BME280;33123;50.118;10.272;2023-03-14T00:32:20;95860.84;;;10.75;80.80
47374;BME280;33123;50.118;10.272;2023-03-14T00:34:48;95843.28;;;10.56;80.79
47374;BME280;33123;50.118;10.272;2023-03-14T00:37:15;95863.56;;;10.70;81.28
47374;BME280;33123;50.118;10.272;2023-03-14T00:39:42;95858.34;;;10.83;80.14
47374;BME280;33123;50.118;10.272;2023-03-14T00:42:09;95859.88;;;10.71;80.12
47374;BME280;33123;50.118;10.272;2023-03-14T00:44:35;95861.06;;;10.78;80.03
47374;BME280;33123;50.118;10.272;2023-03-14T00:47:02;95863.31;;;10.85;79.84
47374;BME280;33123;50.118;10.272;2023-03-14T00:49:29;95871.41;;;10.89;79.84
47374;BME280;33123;50.118;10.272;2023-03-14T00:51:57;95873.94;;;10.94;79.50
47374;BME280;33123;50.118;10.272;2023-03-14T00:54:23;95868.31;;;11.00;79.36
47374;BME280;33123;50.118;10.272;2023-03-14T00:56:50;95870.22;;;10.81;79.69
47374;BME280;33123;50.118;10.272;2023-03-14T00:59:16;95863.50;;;11.02;79.69
47374;BME280;33123;50.118;10.272;2023-03-14T01:01:43;95863.59;;;10.97;79.65
47374;BME280;33123;50.118;10.272;2023-03-14T01:04:10;95864.88;;;11.00;79.52
47374;BME280;33123;50.118;10.272;2023-03-14T01:06:37;95864.19;;;10.80;80.41
47374;BME280;33123;50.118;10.272;2023-03-14T01:09:05;95858.44;;;11.06;79.25
47374;BME280;33123;50.118;10.272;2023-03-14T01:11:33;95863.59;;;10.97;79.56
47374;BME280;33123;50.118;10.272;2023-03-14T01:14:00;95861.84;;;11.06;79.15
47374;BME280;33123;50.118;10.272;2023-03-14T01:16:28;95850.03;;;10.90;80.28
47374;BME280;33123;50.118;10.272;2023-03-14T01:18:55;95847.31;;;10.95;79.33
47374;BME280;33123;50.118;10.272;2023-03-14T01:21:24;95857.94;;;11.18;78.79
47374;BME280;33123;50.118;10.272;2023-03-14T01:23:51;95851.22;;;11.12;78.84
47374;BME280;33123;50.118;10.272;2023-03-14T01:26:22;95846.50;;;11.08;79.28
47374;BME280;33123;50.118;10.272;2023-03-14T01:28:50;95834.38;;;11.21;78.57
47374;BME280;33123;50.118;10.272;2023-03-14T01:31:18;95807.34;;;11.16;77.80
47374;BME280;33123;50.118;10.272;2023-03-14T01:33:45;95796.78;;;11.16;77.93
47374;BME280;33123;50.118;10.272;2023-03-14T01:36:11;95825.38;;;11.36;77.64
47374;BME280;33123;50.118;10.272;2023-03-14T01:38:39;95814.94;;;11.31;78.08
47374;BME280;33123;50.118;10.272;2023-03-14T01:41:07;95820.63;;;11.24;78.19
47374;BME280;33123;50.118;10.272;2023-03-14T01:43:35;95815.84;;;11.13;78.59
47374;BME280;33123;50.118;10.272;2023-03-14T01:46:25;95814.25;;;11.25;77.98
47374;BME280;33123;50.118;10.272;2023-03-14T01:48:57;95803.19;;;11.37;77.69
47374;BME280;33123;50.118;10.272;2023-03-14T01:51:29;95805.94;;;11.32;77.93
47374;BME280;33123;50.118;10.272;2023-03-14T01:54:03;95788.09;;;11.29;77.70
47374;BME280;33123;50.118;10.272;2023-03-14T01:56:32;95786.75;;;11.04;78.41
47374;BME280;33123;50.118;10.272;2023-03-14T01:59:01;95777.66;;;11.24;78.05
47374;BME280;33123;50.118;10.272;2023-03-14T02:01:30;95770.84;;;11.09;78.46
47374;BME280;33123;50.118;10.272;2023-03-14T02:04:00;95770.03;;;11.22;77.81
47374;BME280;33123;50.118;10.272;2023-03-14T02:06:33;95761.56;;;11.12;78.09
47374;BME280;33123;50.118;10.272;2023-03-14T02:09:01;95742.75;;;10.91;78.64
47374;BME280;33123;50.118;10.272;2023-03-14T02:11:29;95750.75;;;10.99;77.77
47374;BME280;33123;50.118;10.272;2023-03-14T02:13:57;95755.09;;;11.18;77.53
47374;BME280;33123;50.118;10.272;2023-03-14T02:16:26;95722.56;;;10.86;77.91
47374;BME280;33123;50.118;10.272;2023-03-14T02:18:53;95748.84;;;10.77;79.42
47374;BME280;33123;50.118;10.272;2023-03-14T02:21:24;95751.53;;;10.86;78.87
47374;BME280;33123;50.118;10.272;2023-03-14T02:23:58;95739.25;;;10.95;77.89
47374;BME280;33123;50.118;10.272;2023-03-14T02:26:31;95735.06;;;10.94;78.04
47374;BME280;33123;50.118;10.272;2023-03-14T02:29:04;95728.91;;;10.85;78.20
47374;BME280;33123;50.118;10.272;2023-03-14T02:31:30;95712.56;;;10.97;77.71
47374;BME280;33123;50.118;10.272;2023-03-14T02:33:58;95715.53;;;10.95;77.72
47374;BME280;33123;50.118;10.272;2023-03-14T02:36:26;95718.94;;;10.96;77.90
47374;BME280;33123;50.118;10.272;2023-03-14T02:38:59;95707.63;;;10.95;77.22
47374;BME280;33123;50.118;10.272;2023-03-14T02:41:28;95723.34;;;10.87;77.58
47374;BME280;33123;50.118;10.272;2023-03-14T02:43:55;95725.75;;;11.10;76.78
47374;BME280;33123;50.118;10.272;2023-03-14T02:46:23;95705.69;;;10.73;77.88
47374;BME280;33123;50.118;10.272;2023-03-14T02:48:51;95706.34;;;10.93;77.48
47374;BME280;33123;50.118;10.272;2023-03-14T02:51:20;95711.28;;;10.72;77.64
47374;BME280;33123;50.118;10.272;2023-03-14T02:53:47;95710.09;;;10.78;78.04
47374;BME280;33123;50.118;10.272;2023-03-14T02:56:14;95717.53;;;10.98;77.12
47374;BME280;33123;50.118;10.272;2023-03-14T02:58:40;95712.69;;;10.92;76.81
47374;BME280;33123;50.118;10.272;2023-03-14T03:01:07;95710.47;;;10.85;77.33
47374;BME280;33123;50.118;10.272;2023-03-14T03:03:35;95705.44;;;10.97;76.91
47374;BME280;33123;50.118;10.272;2023-03-14T03:06:02;95707.19;;;11.02;76.69
47374;BME280;33123;50.118;10.272;2023-03-14T03:08:29;95694.84;;;10.89;76.55
47374;BME280;33123;50.118;10.272;2023-03-14T03:10:57;95707.22;;;10.88;76.82
47374;BME280;33123;50.118;10.272;2023-03-14T03:13:24;95685.41;;;10.60;77.37
47374;BME280;33123;50.118;10.272;2023-03-14T03:15:52;95647.66;;;10.65;76.66
47374;BME280;33123;50.118;10.272;2023-03-14T03:18:19;95719.81;;;10.91;76.27
47374;BME280;33123;50.118;10.272;2023-03-14T03:20:47;95709.38;;;10.86;76.58
47374;BME280;33123;50.118;10.272;2023-03-14T03:23:13;95697.06;;;10.95;76.07
47374;BME280;33123;50.118;10.272;2023-03-14T03:25:40;95689.38;;;10.85;76.65
47374;BME280;33123;50.118;10.272;2023-03-14T03:28:07;95683.78;;;11.00;75.92
47374;BME280;33123;50.118;10.272;2023-03-14T03:30:37;95681.25;;;10.95;76.11
47374;BME280;33123;50.118;10.272;2023-03-14T03:33:04;95696.19;;;10.86;76.07
47374;BME280;33123;50.118;10.272;2023-03-14T03:35:30;95686.69;;;10.99;75.63
47374;BME280;33123;50.118;10.272;2023-03-14T03:37:58;95679.88;;;10.98;75.50
47374;BME280;33123;50.118;10.272;2023-03-14T03:40:25;95680.47;;;10.95;75.50
47374;BME280;33123;50.118;10.272;2023-03-14T03:42:52;95687.88;;;11.06;75.37
47374;BME280;33123;50.118;10.272;2023-03-14T03:45:18;95687.38;;;11.04;75.52
47374;BME280;33123;50.118;10.272;2023-03-14T03:47:45;95688.44;;;11.03;75.50
47374;BME280;33123;50.118;10.272;2023-03-14T03:50:11;95678.69;;;11.04;75.45
47374;BME280;33123;50.118;10.272;2023-03-14T03:52:38;95683.63;;;10.83;76.07
47374;BME280;33123;50.118;10.272;2023-03-14T03:55:07;95691.03;;;10.95;75.98
47374;BME280;33123;50.118;10.272;2023-03-14T03:57:34;95679.72;;;10.80;76.67
47374;BME280;33123;50.118;10.272;2023-03-14T04:00:01;95667.75;;;11.10;75.56
47374;BME280;33123;50.118;10.272;2023-03-14T04:02:28;95658.22;;;10.87;76.31
47374;BME280;33123;50.118;10.272;2023-03-14T04:04:54;95662.47;;;11.10;75.45
47374;BME280;33123;50.118;10.272;2023-03-14T04:07:21;95673.81;;;10.97;75.97
47374;BME280;33123;50.118;10.272;2023-03-14T04:09:47;95673.59;;;11.07;75.70
47374;BME280;33123;50.118;10.272;2023-03-14T04:12:15;95668.53;;;11.11;75.85
47374;BME280;33123;50.118;10.272;2023-03-14T04:14:42;95661.09;;;11.13;75.72
47374;BME280;33123;50.118;10.272;2023-03-14T04:17:09;95659.66;;;11.07;76.10
47374;BME280;33123;50.118;10.272;2023-03-14T04:19:35;95659.00;;;10.88;76.65
47374;BME280;33123;50.118;10.272;2023-03-14T04:22:02;95647.34;;;11.02;76.12
47374;BME280;33123;50.118;10.272;2023-03-14T04:24:28;95645.31;;;10.99;76.48
47374;BME280;33123;50.118;10.272;2023-03-14T04:26:55;95624.06;;;10.96;76.60
47374;BME280;33123;50.118;10.272;2023-03-14T04:29:24;95628.28;;;10.83;76.72
47374;BME280;33123;50.118;10.272;2023-03-14T04:31:50;95632.06;;;10.91;76.27
47374;BME280;33123;50.118;10.272;2023-03-14T04:34:17;95627.13;;;11.12;75.95
47374;BME280;33123;50.118;10.272;2023-03-14T04:36:43;95628.91;;;11.02;75.85
47374;BME280;33123;50.118;10.272;2023-03-14T04:39:10;95633.81;;;10.95;76.82
47374;BME280;33123;50.118;10.272;2023-03-14T04:41:37;95637.13;;;11.01;76.01
47374;BME280;33123;50.118;10.272;2023-03-14T04:44:03;95632.38;;;11.12;75.49
47374;BME280;33123;50.118;10.272;2023-03-14T04:46:31;95632.00;;;11.04;75.82
47374;BME280;33123;50.118;10.272;2023-03-14T04:48:58;95624.53;;;11.20;75.34
47374;BME280;33123;50.118;10.272;2023-03-14T04:51:24;95625.78;;;11.23;75.19
47374;BME280;33123;50.118;10.272;2023-03-14T04:53:53;95632.00;;;11.04;75.86
47374;BME280;33123;50.118;10.272;2023-03-14T04:56:20;95627.94;;;10.98;75.92
47374;BME280;33123;50.118;10.272;2023-03-14T04:58:47;95624.63;;;10.93;75.86
47374;BME280;33123;50.118;10.272;2023-03-14T05:01:13;95619.13;;;11.03;75.71
47374;BME280;33123;50.118;10.272;2023-03-14T05:03:41;95616.50;;;11.03;75.88
47374;BME280;33123;50.118;10.272;2023-03-14T05:06:08;95632.50;;;11.06;75.55
47374;BME280;33123;50.118;10.272;2023-03-14T05:08:35;95621.94;;;10.84;76.20
47374;BME280;33123;50.118;10.272;2023-03-14T05:11:27;95639.50;;;10.89;76.54
47374;BME280;33123;50.118;10.272;2023-03-14T05:13:54;95581.84;;;10.51;76.75
47374;BME280;33123;50.118;10.272;2023-03-14T05:16:21;95640.41;;;11.06;75.62
47374;BME280;33123;50.118;10.272;2023-03-14T05:18:50;95639.38;;;10.94;75.40
47374;BME280;33123;50.118;10.272;2023-03-14T05:21:17;95646.78;;;11.05;75.38
47374;BME280;33123;50.118;10.272;2023-03-14T05:23:43;95628.91;;;11.02;75.31
47374;BME280;33123;50.118;10.272;2023-03-14T05:26:10;95627.53;;;11.05;75.12
47374;BME280;33123;50.118;10.272;2023-03-14T05:28:36;95635.38;;;10.96;75.26
47374;BME280;33123;50.118;10.272;2023-03-14T05:31:06;95631.88;;;10.87;75.07
47374;BME280;33123;50.118;10.272;2023-03-14T05:33:33;95633.47;;;11.10;74.79
47374;BME280;33123;50.118;10.272;2023-03-14T05:36:01;95640.84;;;11.22;73.93
47374;BME280;33123;50.118;10.272;2023-03-14T05:38:27;95640.72;;;11.27;73.54
47374;BME280;33123;50.118;10.272;2023-03-14T05:40:54;95640.06;;;11.22;73.75
47374;BME280;33123;50.118;10.272;2023-03-14T05:43:20;95632.28;;;11.17;73.43
47374;BME280;33123;50.118;10.272;2023-03-14T05:45:47;95626.03;;;11.13;73.66
47374;BME280;33123;50.118;10.272;2023-03-14T05:48:14;95634.78;;;11.22;73.23
47374;BME280;33123;50.118;10.272;2023-03-14T05:50:42;95632.81;;;11.27;72.90
47374;BME280;33123;50.118;10.272;2023-03-14T05:53:10;95622.06;;;11.24;72.74
47374;BME280;33123;50.118;10.272;2023-03-14T05:55:36;95615.97;;;11.15;73.18
47374;BME280;33123;50.118;10.272;2023-03-14T05:58:03;95614.16;;;11.24;72.47
47374;BME280;33123;50.118;10.272;2023-03-14T06:00:29;95601.16;;;11.27;72.36
47374;BME280;33123;50.118;10.272;2023-03-14T06:02:56;95607.22;;;11.28;72.27
47374;BME280;33123;50.118;10.272;2023-03-14T06:05:23;95600.88;;;11.29;71.98
47374;BME280;33123;50.118;10.272;2023-03-14T06:07:49;95595.72;;;11.24;72.36
47374;BME280;33123;50.118;10.272;2023-03-14T06:10:17;95601.44;;;11.26;72.07
47374;BME280;33123;50.118;10.272;2023-03-14T06:12:44;95603.00;;;11.27;71.85
47374;BME280;33123;50.118;10.272;2023-03-14T06:15:10;95609.53;;;11.29;71.87
47374;BME280;33123;50.118;10.272;2023-03-14T06:17:37;95612.88;;;11.21;71.90
47374;BME280;33123;50.118;10.272;2023-03-14T06:20:04;95611.22;;;11.25;71.83
47374;BME280;33123;50.118;10.272;2023-03-14T06:22:31;95610.97;;;11.35;71.14
47374;BME280;33123;50.118;10.272;2023-03-14T06:24:57;95613.97;;;11.20;71.72
47374;BME280;33123;50.118;10.272;2023-03-14T06:27:25;95602.66;;;11.20;71.36
47374;BME280;33123;50.118;10.272;2023-03-14T06:29:52;95592.88;;;11.20;71.55
47374;BME280;33123;50.118;10.272;2023-03-14T06:32:19;95594.81;;;11.28;71.25
47374;BME280;33123;50.118;10.272;2023-03-14T06:34:45;95594.19;;;11.31;70.84
47374;BME280;33123;50.118;10.272;2023-03-14T06:37:12;95596.59;;;11.19;70.93
47374;BME280;33123;50.118;10.272;2023-03-14T06:39:39;95590.13;;;11.25;70.93
47374;BME280;33123;50.118;10.272;2023-03-14T06:42:05;95583.84;;;11.13;71.14
47374;BME280;33123;50.118;10.272;2023-03-14T06:44:34;95583.84;;;11.13;71.74
47374;BME280;33123;50.118;10.272;2023-03-14T06:47:00;95585.88;;;11.16;70.72
47374;BME280;33123;50.118;10.272;2023-03-14T06:49:27;95584.31;;;11.15;70.77
47374;BME280;33123;50.118;10.272;2023-03-14T06:51:54;95582.88;;;11.31;70.11
47374;BME280;33123;50.118;10.272;2023-03-14T06:54:20;95581.09;;;11.18;70.03
47374;BME280;33123;50.118;10.272;2023-03-14T06:56:47;95583.47;;;11.28;69.73
47374;BME280;33123;50.118;10.272;2023-03-14T06:59:13;95583.22;;;11.38;69.70
47374;BME280;33123;50.118;10.272;2023-03-14T07:01:41;95564.19;;;11.19;69.49
47374;BME280;33123;50.118;10.272;2023-03-14T07:04:09;95580.72;;;11.33;70.09
47374;BME280;33123;50.118;10.272;2023-03-14T07:06:36;95586.25;;;11.23;69.28
47374;BME280;33123;50.118;10.272;2023-03-14T07:09:05;95582.44;;;11.37;69.02
47374;BME280;33123;50.118;10.272;2023-03-14T07:11:31;95587.34;;;11.22;68.93
47374;BME280;33123;50.118;10.272;2023-03-14T07:13:58;95573.53;;;11.25;68.93
47374;BME280;33123;50.118;10.272;2023-03-14T07:16:25;95574.81;;;11.36;68.75
47374;BME280;33123;50.118;10.272;2023-03-14T07:18:55;95575.94;;;11.13;69.16
47374;BME280;33123;50.118;10.272;2023-03-14T07:21:21;95576.13;;;11.16;69.33
47374;BME280;33123;50.118;10.272;2023-03-14T07:23:48;95580.06;;;11.27;68.84
47374;BME280;33123;50.118;10.272;2023-03-14T07:26:15;95568.94;;;11.08;68.94
47374;BME280;33123;50.118;10.272;2023-03-14T07:28:41;95582.53;;;11.24;68.57
47374;BME280;33123;50.118;10.272;2023-03-14T07:31:08;95565.63;;;11.25;68.46
47374;BME280;33123;50.118;10.272;2023-03-14T07:33:35;95572.41;;;11.48;67.71
47374;BME280;33123;50.118;10.272;2023-03-14T07:36:03;95581.53;;;11.42;67.44
47374;BME280;33123;50.118;10.272;2023-03-14T07:38:30;95573.50;;;11.47;67.71
47374;BME280;33123;50.118;10.272;2023-03-14T07:41:00;95539.69;;;11.18;67.10
47374;BME280;33123;50.118;10.272;2023-03-14T07:43:27;95572.78;;;11.55;67.18
47374;BME280;33123;50.118;10.272;2023-03-14T07:45:54;95573.19;;;11.49;67.09
47374;BME280;33123;50.118;10.272;2023-03-14T07:48:21;95567.75;;;11.45;66.64
47374;BME280;33123;50.118;10.272;2023-03-14T07:50:50;95543.44;;;11.26;66.70
47374;BME280;33123;50.118;10.272;2023-03-14T07:53:19;95566.44;;;11.65;66.76
47374;BME280;33123;50.118;10.272;2023-03-14T07:55:46;95567.91;;;11.49;66.82
47374;BME280;33123;50.118;10.272;2023-03-14T07:58:13;95575.59;;;11.68;66.59
47374;BME280;33123;50.118;10.272;2023-03-14T08:00:40;95573.09;;;11.62;66.42
47374;BME280;33123;50.118;10.272;2023-03-14T08:03:06;95495.50;;;11.24;66.23
47374;BME280;33123;50.118;10.272;2023-03-14T08:05:34;95569.94;;;11.52;66.47
47374;BME280;33123;50.118;10.272;2023-03-14T08:08:01;95564.09;;;11.32;67.20
47374;BME280;33123;50.118;10.272;2023-03-14T08:10:29;95571.06;;;11.59;67.34
47374;BME280;33123;50.118;10.272;2023-03-14T08:12:57;95573.09;;;11.31;67.80
47374;BME280;33123;50.118;10.272;2023-03-14T08:15:24;95581.75;;;11.54;67.87
47374;BME280;33123;50.118;10.272;2023-03-14T08:17:51;95583.25;;;11.47;68.47
47374;BME280;33123;50.118;10.272;2023-03-14T08:20:20;95593.50;;;11.48;69.27
47374;BME280;33123;50.118;10.272;2023-03-14T08:22:47;95588.66;;;11.42;69.65
47374;BME280;33123;50.118;10.272;2023-03-14T08:25:14;95597.34;;;11.42;70.68
47374;BME280;33123;50.118;10.272;2023-03-14T08:27:42;95594.72;;;11.42;71.04
47374;BME280;33123;50.118;10.272;2023-03-14T08:30:11;95597.13;;;11.30;71.51
47374;BME280;33123;50.118;10.272;2023-03-14T08:32:38;95603.38;;;11.34;72.27
47374;BME280;33123;50.118;10.272;2023-03-14T08:35:05;95598.28;;;11.15;73.22
47374;BME280;33123;50.118;10.272;2023-03-14T08:37:32;95602.53;;;11.25;73.27
47374;BME280;33123;50.118;10.272;2023-03-14T08:40:00;95603.38;;;11.12;74.46
47374;BME280;33123;50.118;10.272;2023-03-14T08:42:31;95599.97;;;11.11;74.83
47374;BME280;33123;50.118;10.272;2023-03-14T08:44:59;95587.06;;;11.09;75.33
47374;BME280;33123;50.118;10.272;2023-03-14T08:47:26;95592.00;;;11.02;75.96
47374;BME280;33123;50.118;10.272;2023-03-14T08:49:52;95591.03;;;10.98;76.87
47374;BME280;33123;50.118;10.272;2023-03-14T08:52:19;95589.16;;;11.21;75.91
47374;BME280;33123;50.118;10.272;2023-03-14T08:58:27;95586.84;;;11.20;75.71
47374;BME280;33123;50.118;10.272;2023-03-14T09:00:56;95581.25;;;11.21;74.97
47374;BME280;33123;50.118;10.272;2023-03-14T09:03:23;95586.09;;;11.50;74.72
47374;BME280;33123;50.118;10.272;2023-03-14T09:05:51;95579.22;;;11.80;73.82
47374;BME280;33123;50.118;10.272;2023-03-14T09:08:22;95586.59;;;11.92;72.84
47374;BME280;33123;50.118;10.272;2023-03-14T09:10:54;95584.50;;;12.29;70.58
47374;BME280;33123;50.118;10.272;2023-03-14T09:13:23;95569.78;;;12.54;69.33
47374;BME280;33123;50.118;10.272;2023-03-14T09:15:51;95583.94;;;12.84;67.45
47374;BME280;33123;50.118;10.272;2023-03-14T09:18:19;95583.31;;;12.69;68.00
47374;BME280;33123;50.118;10.272;2023-03-14T09:20:46;95567.78;;;12.94;67.42
47374;BME280;33123;50.118;10.272;2023-03-14T09:23:13;95581.59;;;12.91;66.89
47374;BME280;33123;50.118;10.272;2023-03-14T09:25:39;95569.78;;;12.71;66.70
47374;BME280;33123;50.118;10.272;2023-03-14T09:28:06;95541.94;;;12.82;67.76
47374;BME280;33123;50.118;10.272;2023-03-14T09:30:33;95568.34;;;13.08;66.41
47374;BME280;33123;50.118;10.272;2023-03-14T09:33:00;95572.66;;;13.47;65.78
47374;BME280;33123;50.118;10.272;2023-03-14T09:35:29;95549.34;;;13.41;63.80
47374;BME280;33123;50.118;10.272;2023-03-14T09:37:56;95585.00;;;13.82;62.39
47374;BME280;33123;50.118;10.272;2023-03-14T09:40:25;95565.00;;;13.93;62.26
47374;BME280;33123;50.118;10.272;2023-03-14T09:42:57;95592.69;;;14.04;61.63
47374;BME280;33123;50.118;10.272;2023-03-14T09:45:26;95568.28;;;14.19;61.08
47374;BME280;33123;50.118;10.272;2023-03-14T09:47:55;95565.78;;;14.52;60.08
47374;BME280;33123;50.118;10.272;2023-03-14T09:50:25;95553.44;;;14.77;59.01
47374;BME280;33123;50.118;10.272;2023-03-14T09:52:56;95586.34;;;14.76;57.78
47374;BME280;33123;50.118;10.272;2023-03-14T09:55:28;95581.31;;;14.84;57.82
47374;BME280;33123;50.118;10.272;2023-03-14T09:57:59;95586.84;;;14.49;58.14
47374;BME280;33123;50.118;10.272;2023-03-14T10:00:29;95585.22;;;14.06;59.27
47374;BME280;33123;50.118;10.272;2023-03-14T10:03:00;95566.94;;;13.84;59.27
47374;BME280;33123;50.118;10.272;2023-03-14T10:05:39;95583.25;;;13.94;59.82
47374;BME280;33123;50.118;10.272;2023-03-14T10:08:11;95591.59;;;14.05;59.76
47374;BME280;33123;50.118;10.272;2023-03-14T10:10:39;95588.13;;;13.84;60.00
47374;BME280;33123;50.118;10.272;2023-03-14T10:13:14;95570.28;;;13.55;60.96
47374;BME280;33123;50.118;10.272;2023-03-14T10:15:48;95582.47;;;13.56;61.54
47374;BME280;33123;50.118;10.272;2023-03-14T10:18:16;95584.38;;;13.12;62.48
47374;BME280;33123;50.118;10.272;2023-03-14T10:20:45;95596.63;;;13.51;61.55
47374;BME280;33123;50.118;10.272;2023-03-14T10:23:29;95586.00;;;13.60;61.19
47374;BME280;33123;50.118;10.272;2023-03-14T10:26:07;95583.38;;;13.98;60.18
47374;BME280;33123;50.118;10.272;2023-03-14T10:28:39;95601.19;;;13.89;60.64
47374;BME280;33123;50.118;10.272;2023-03-14T10:31:07;95591.69;;;14.17;60.49
47374;BME280;33123;50.118;10.272;2023-03-14T10:33:35;95597.72;;;14.56;59.26
47374;BME280;33123;50.118;10.272;2023-03-14T10:36:05;95584.34;;;14.73;58.05
47374;BME280;33123;50.118;10.272;2023-03-14T10:38:36;95564.28;;;15.05;57.73
47374;BME280;33123;50.118;10.272;2023-03-14T10:41:15;95592.41;;;15.64;56.30
47374;BME280;33123;50.118;10.272;2023-03-14T10:43:44;95582.75;;;15.59;55.78
47374;BME280;33123;50.118;10.272;2023-03-14T10:46:14;95573.38;;;15.62;54.45
47374;BME280;33123;50.118;10.272;2023-03-14T10:48:44;95589.94;;;15.59;55.44
47374;BME280;33123;50.118;10.272;2023-03-14T10:51:18;95588.09;;;15.26;56.18
47374;BME280;33123;50.118;10.272;2023-03-14T10:53:50;95583.06;;;15.13;57.29
47374;BME280;33123;50.118;10.272;2023-03-14T10:56:24;95583.50;;;14.82;56.37
47374;BME280;33123;50.118;10.272;2023-03-14T10:58:56;95557.50;;;14.75;56.44
47374;BME280;33123;50.118;10.272;2023-03-14T11:01:35;95569.78;;;14.79;56.78
47374;BME280;33123;50.118;10.272;2023-03-14T11:04:14;95565.47;;;15.08;56.76
47374;BME280;33123;50.118;10.272;2023-03-14T11:06:44;95572.13;;;15.14;56.91
47374;BME280;33123;50.118;10.272;2023-03-14T11:09:20;95580.00;;;14.90;56.77
47374;BME280;33123;50.118;10.272;2023-03-14T11:11:50;95586.13;;;15.36;56.19
47374;BME280;33123;50.118;10.272;2023-03-14T11:14:23;95573.56;;;15.45;56.33
47374;BME280;33123;50.118;10.272;2023-03-14T11:16:56;95572.97;;;15.84;55.15
47374;BME280;33123;50.118;10.272;2023-03-14T11:19:48;95566.00;;;16.69;54.88
47374;BME280;33123;50.118;10.272;2023-03-14T11:22:21;95572.78;;;17.07;52.83
47374;BME280;33123;50.118;10.272;2023-03-14T11:25:12;95571.78;;;17.55;51.91
47374;BME280;33123;50.118;10.272;2023-03-14T11:27:44;95573.09;;;17.93;49.89
47374;BME280;33123;50.118;10.272;2023-03-14T11:30:19;95561.56;;;18.56;48.42
47374;BME280;33123;50.118;10.272;2023-03-14T11:32:54;95568.72;;;18.52;48.12
47374;BME280;33123;50.118;10.272;2023-03-14T11:35:28;95560.94;;;18.27;48.08
47374;BME280;33123;50.118;10.272;2023-03-14T11:38:05;95553.47;;;17.10;49.29
47374;BME280;33123;50.118;10.272;2023-03-14T11:40:38;95558.81;;;16.70;49.81
47374;BME280;33123;50.118;10.272;2023-03-14T11:43:11;95560.53;;;16.37;50.86
47374;BME280;33123;50.118;10.272;2023-03-14T11:45:42;95564.31;;;15.75;53.00
47374;BME280;33123;50.118;10.272;2023-03-14T11:48:22;95559.31;;;15.49;53.66
47374;BME280;33123;50.118;10.272;2023-03-14T11:50:55;95559.75;;;14.64;54.84
47374;BME280;33123;50.118;10.272;2023-03-14T11:53:34;95556.59;;;14.71;56.20
47374;BME280;33123;50.118;10.272;2023-03-14T11:56:09;95555.31;;;14.26;57.53
47374;BME280;33123;50.118;10.272;2023-03-14T11:58:50;95558.44;;;13.99;58.32
47374;BME280;33123;50.118;10.272;2023-03-14T12:01:19;95558.75;;;13.97;59.80
47374;BME280;33123;50.118;10.272;2023-03-14T12:03:53;95564.59;;;13.82;59.96
47374;BME280;33123;50.118;10.272;2023-03-14T12:06:24;95566.53;;;13.64;61.40
47374;BME280;33123;50.118;10.272;2023-03-14T12:09:20;95572.56;;;13.73;61.17
47374;BME280;33123;50.118;10.272;2023-03-14T12:11:51;95569.41;;;13.42;62.68
47374;BME280;33123;50.118;10.272;2023-03-14T12:14:24;95574.47;;;13.64;62.67
47374;BME280;33123;50.118;10.272;2023-03-14T12:16:54;95566.31;;;13.40;62.48
47374;BME280;33123;50.118;10.272;2023-03-14T12:19:31;95567.09;;;13.32;62.65
47374;BME280;33123;50.118;10.272;2023-03-14T12:22:05;95568.63;;;13.50;62.70
47374;BME280;33123;50.118;10.272;2023-03-14T12:24:36;95562.25;;;13.42;62.57
47374;BME280;33123;50.118;10.272;2023-03-14T12:27:06;95561.94;;;13.44;63.53
47374;BME280;33123;50.118;10.272;2023-03-14T12:36:03;95550.03;;;12.86;65.41
47374;BME280;33123;50.118;10.272;2023-03-14T12:38:52;95572.91;;;12.73;66.78
47374;BME280;33123;50.118;10.272;2023-03-14T12:41:25;95552.06;;;12.63;67.88
47374;BME280;33123;50.118;10.272;2023-03-14T12:43:55;95528.44;;;12.49;69.58
47374;BME280;33123;50.118;10.272;2023-03-14T12:46:23;95552.53;;;12.56;69.12
47374;BME280;33123;50.118;10.272;2023-03-14T12:48:54;95558.28;;;12.58;69.35
47374;BME280;33123;50.118;10.272;2023-03-14T12:51:29;95546.41;;;12.21;71.81
47374;BME280;33123;50.118;10.272;2023-03-14T12:54:21;95539.44;;;12.17;71.95
47374;BME280;33123;50.118;10.272;2023-03-14T12:57:22;95541.00;;;12.18;72.87
47374;BME280;33123;50.118;10.272;2023-03-14T12:59:56;95531.81;;;12.06;72.82
47374;BME280;33123;50.118;10.272;2023-03-14T13:02:26;95534.59;;;12.01;73.58
47374;BME280;33123;50.118;10.272;2023-03-14T13:05:01;95543.41;;;11.88;73.92
47374;BME280;33123;50.118;10.272;2023-03-14T13:07:31;95536.75;;;11.99;74.49
47374;BME280;33123;50.118;10.272;2023-03-14T13:10:04;95550.72;;;11.91;74.68